Time;durP1;ratioP1;P1;durP2;ratioP2;P2;SDS_P1;SDS_P2;PMS_P1;PMS_P2;Temp;Humidity;BMP_temperature;BMP_pressure;BME280_temperature;BME280_humidity;BME280_pressure;Samples;Min_cycle;Max_cycle;Signal;HPM_P1;HPM_P2
2022/06/30 00:00:11;;;;;;;7.82;3.72;;;;;;;27.83;47.93;100710.16;5009207;28;20441;-76
2022/06/30 00:02:38;;;;;;;7.18;3.67;;;;;;;27.61;47.00;100697.22;5008964;28;20721;-77
2022/06/30 00:05:06;;;;;;;6.88;3.53;;;;;;;27.60;46.61;100698.31;5009383;28;20057;-82
2022/06/30 00:07:33;;;;;;;10.80;3.60;;;;;;;27.66;47.76;100723.75;5009676;28;20049;-80
2022/06/30 00:10:00;;;;;;;10.88;3.60;;;;;;;27.32;47.50;100660.22;5009503;28;20138;-80
2022/06/30 00:12:27;;;;;;;7.78;3.60;;;;;;;27.60;47.17;100716.56;5026973;28;20057;-78
2022/06/30 00:14:54;;;;;;;9.73;3.83;;;;;;;27.10;47.38;100641.00;5009669;28;20298;-78
2022/06/30 00:17:20;;;;;;;5.65;3.50;;;;;;;27.67;47.38;100728.13;5009420;28;20088;-78
2022/06/30 00:19:47;;;;;;;10.20;3.72;;;;;;;27.59;47.05;100734.81;5008928;28;20296;-80
2022/06/30 00:22:14;;;;;;;8.32;3.67;;;;;;;27.52;46.97;100722.44;5009080;28;20084;-80
2022/06/30 00:24:40;;;;;;;9.23;4.10;;;;;;;27.02;48.95;100618.53;5009245;28;20091;-79
2022/06/30 00:27:07;;;;;;;7.15;3.75;;;;;;;27.59;47.48;100721.19;5008979;28;20054;-79
2022/06/30 00:29:34;;;;;;;5.88;3.38;;;;;;;27.64;46.83;100736.81;5009176;28;20061;-81
2022/06/30 00:32:01;;;;;;;6.82;3.50;;;;;;;27.59;46.27;100737.56;5009084;28;20045;-79
2022/06/30 00:34:28;;;;;;;11.15;4.03;;;;;;;27.40;47.45;100706.13;5009133;28;20060;-81
2022/06/30 00:36:55;;;;;;;8.63;3.55;;;;;;;27.57;46.29;100738.88;5026491;28;20053;-79
2022/06/30 00:39:23;;;;;;;10.73;3.80;;;;;;;27.41;47.22;100724.97;5005574;28;20058;-79
2022/06/30 00:41:50;;;;;;;5.18;3.35;;;;;;;27.40;47.02;100745.13;4989399;28;20108;-81
2022/06/30 00:44:17;;;;;;;8.63;4.07;;;;;;;26.85;46.82;100642.19;4989247;28;20075;-81
2022/06/30 00:46:44;;;;;;;10.25;3.80;;;;;;;27.36;46.89;100727.63;5005500;28;20103;-79
2022/06/30 00:49:11;;;;;;;6.28;3.97;;;;;;;27.40;47.12;100731.47;5006242;28;20100;-81
2022/06/30 00:51:38;;;;;;;4.47;3.30;;;;;;;27.44;47.68;100721.75;5005867;28;20062;-77
2022/06/30 00:54:06;;;;;;;8.68;3.60;;;;;;;27.02;46.60;100659.38;5036901;28;20285;-80
2022/06/30 00:56:40;;;;;;;5.35;3.65;;;;;;;27.36;46.55;100719.44;5028592;28;20060;-79
2022/06/30 00:59:08;;;;;;;7.15;3.50;;;;;;;27.43;46.98;100730.16;5028563;28;20052;-78
2022/06/30 01:01:40;;;;;;;11.10;4.30;;;;;;;27.38;46.50;100730.06;5028406;28;20080;-80
2022/06/30 01:04:08;;;;;;;11.02;3.83;;;;;;;26.95;46.13;100666.06;5027883;28;20056;-79
2022/06/30 01:06:36;;;;;;;10.50;3.83;;;;;;;27.36;46.33;100738.50;5029071;28;20469;-79
2022/06/30 01:09:03;;;;;;;11.95;3.88;;;;;;;27.12;46.42;100704.25;5028446;28;20495;-79
2022/06/30 01:14:15;;;;;;;11.65;3.95;;;;;;;27.19;46.71;100713.13;5046361;28;20380;-80
2022/06/30 01:16:42;;;;;;;8.30;3.78;;;;;;;27.32;47.04;100739.25;5028866;28;20052;-78
2022/06/30 01:19:09;;;;;;;7.80;3.47;;;;;;;27.30;46.82;100738.66;5046648;28;20052;-80
2022/06/30 01:21:36;;;;;;;7.13;3.40;;;;;;;27.12;46.78;100715.13;5028914;28;20106;-79
2022/06/30 01:24:03;;;;;;;8.20;3.67;;;;;;;27.26;46.82;100746.50;5028989;28;20370;-79
2022/06/30 01:26:30;;;;;;;7.82;3.33;;;;;;;27.22;47.82;100735.25;5028180;28;20053;-79
2022/06/30 01:28:59;;;;;;;13.10;3.88;;;;;;;26.62;47.15;100648.53;5028614;28;20080;-80
2022/06/30 01:31:26;;;;;;;12.43;4.13;;;;;;;27.21;47.15;100740.94;5028548;28;20114;-78
2022/06/30 01:33:53;;;;;;;9.75;3.72;;;;;;;26.48;47.13;100625.34;5028816;28;20049;-79
2022/06/30 01:36:19;;;;;;;10.00;4.00;;;;;;;26.51;47.06;100628.41;5029156;28;20285;-79
2022/06/30 01:38:46;;;;;;;8.38;3.47;;;;;;;26.90;47.27;100702.19;5026823;28;20077;-79
2022/06/30 01:41:15;;;;;;;5.13;3.65;;;;;;;26.61;47.30;100658.59;5026724;28;20045;-81
2022/06/30 01:43:42;;;;;;;4.70;3.53;;;;;;;26.82;48.42;100672.59;5009051;28;20053;-80
2022/06/30 01:46:09;;;;;;;7.15;3.53;;;;;;;26.93;47.15;100700.88;5009399;28;20042;-78
2022/06/30 01:48:36;;;;;;;6.68;3.40;;;;;;;27.22;46.44;100734.44;5009634;28;20569;-78
2022/06/30 01:51:02;;;;;;;6.53;3.55;;;;;;;27.10;46.43;100739.06;5009394;28;20052;-79
2022/06/30 01:53:29;;;;;;;8.77;3.65;;;;;;;26.19;46.93;100592.63;5019277;28;20049;-81
2022/06/30 01:55:56;;;;;;;5.03;3.55;;;;;;;26.89;46.75;100721.50;5033369;28;20059;-80
2022/06/30 01:58:23;;;;;;;9.10;3.47;;;;;;;26.72;46.59;100689.56;5032775;28;20060;-79
2022/06/30 02:00:49;;;;;;;7.80;3.45;;;;;;;26.86;47.19;100723.63;5032548;28;20049;-81
2022/06/30 02:03:16;;;;;;;9.45;3.30;;;;;;;26.96;47.02;100746.69;5032333;28;20067;-79
2022/06/30 02:05:43;;;;;;;11.50;3.67;;;;;;;27.04;47.33;100752.59;5032786;28;20119;-79
2022/06/30 02:08:10;;;;;;;7.53;3.70;;;;;;;27.07;46.93;100746.66;5048734;28;20056;-79
2022/06/30 02:10:37;;;;;;;6.70;3.58;;;;;;;26.56;46.79;100653.03;5050005;28;20116;-80
2022/06/30 02:13:05;;;;;;;5.72;3.60;;;;;;;27.06;46.94;100755.91;5032283;28;20060;-80
2022/06/30 02:15:36;;;;;;;7.80;3.83;;;;;;;26.89;46.74;100732.38;5049568;28;20041;-80
2022/06/30 02:18:07;;;;;;;3.63;3.17;;;;;;;26.50;46.85;100677.63;5032151;28;20412;-79
2022/06/30 02:20:35;;;;;;;10.90;3.72;;;;;;;26.90;46.71;100740.31;5049627;28;20398;-81
2022/06/30 02:23:03;;;;;;;5.32;3.50;;;;;;;26.91;48.09;100731.06;5031905;28;20076;-80
2022/06/30 02:25:32;;;;;;;8.32;3.63;;;;;;;26.91;47.30;100733.78;5031345;28;20053;-79
2022/06/30 02:28:02;;;;;;;9.55;4.15;;;;;;;26.79;47.06;100711.22;5049206;28;20045;-79
2022/06/30 02:30:29;;;;;;;7.13;4.10;;;;;;;26.76;47.30;100728.03;5031598;28;20067;-80
2022/06/30 02:32:56;;;;;;;7.00;3.72;;;;;;;26.33;47.24;100663.94;5047979;28;20316;-80
2022/06/30 02:35:23;;;;;;;10.05;3.80;;;;;;;25.95;47.43;100603.56;5049063;28;20057;-79
2022/06/30 02:37:53;;;;;;;8.18;3.28;;;;;;;26.79;46.93;100722.94;5031790;28;20532;-80
2022/06/30 02:40:20;;;;;;;7.95;3.30;;;;;;;26.58;46.96;100713.53;5033152;28;20146;-80
2022/06/30 02:42:47;;;;;;;13.50;4.10;;;;;;;26.04;47.30;100627.66;5012226;28;20045;-79
2022/06/30 02:45:13;;;;;;;5.22;3.28;;;;;;;26.69;47.42;100746.41;5011871;28;20080;-81
2022/06/30 02:47:42;;;;;;;7.05;3.70;;;;;;;26.52;47.67;100740.84;5011537;28;20049;-80
2022/06/30 02:50:11;;;;;;;6.82;3.58;;;;;;;26.66;47.51;100761.34;5027723;28;20049;-80
2022/06/30 02:52:38;;;;;;;7.95;4.25;;;;;;;26.46;47.67;100734.47;5030894;28;20052;-79
2022/06/30 02:55:06;;;;;;;4.30;3.40;;;;;;;26.64;47.42;100775.19;5031457;28;20049;-81
2022/06/30 02:57:35;;;;;;;9.73;3.65;;;;;;;26.57;47.62;100771.75;5031034;28;20520;-79
2022/06/30 03:00:05;;;;;;;10.13;3.67;;;;;;;26.31;47.66;100740.41;5031019;28;20094;-80
2022/06/30 03:02:32;;;;;;;9.00;3.78;;;;;;;26.46;47.99;100771.72;5030740;28;20526;-80
2022/06/30 03:04:59;;;;;;;9.85;3.42;;;;;;;26.43;47.92;100762.13;5048712;28;20114;-79
2022/06/30 03:07:25;;;;;;;7.65;3.75;;;;;;;26.32;48.53;100746.66;5030084;28;20119;-79
2022/06/30 03:09:52;;;;;;;8.48;3.83;;;;;;;26.32;48.06;100746.66;5030985;28;20049;-80
2022/06/30 03:12:19;;;;;;;11.73;3.97;;;;;;;26.59;47.58;100777.78;5048818;28;20060;-81
2022/06/30 03:14:47;;;;;;;9.02;4.03;;;;;;;26.41;48.08;100770.56;5031124;28;20060;-80
2022/06/30 03:17:14;;;;;;;10.68;3.88;;;;;;;26.50;47.53;100781.91;5030450;28;20053;-79
2022/06/30 03:19:40;;;;;;;5.95;3.90;;;;;;;26.33;47.70;100770.06;5030650;28;20057;-79
2022/06/30 03:22:07;;;;;;;6.55;3.78;;;;;;;26.25;48.24;100765.81;5030764;28;20069;-79
2022/06/30 03:24:34;;;;;;;9.35;3.88;;;;;;;26.21;48.16;100775.50;5030573;28;20049;-80
2022/06/30 03:27:00;;;;;;;6.43;3.85;;;;;;;26.20;48.25;100780.13;5030934;28;20061;-80
2022/06/30 03:29:27;;;;;;;8.93;3.97;;;;;;;26.04;48.13;100752.78;5031206;28;20051;-79
2022/06/30 03:31:54;;;;;;;8.60;3.55;;;;;;;26.25;48.80;100786.78;5049676;28;20041;-81
2022/06/30 03:34:20;;;;;;;9.35;3.53;;;;;;;26.23;48.64;100782.38;5041098;28;20052;-78
2022/06/30 03:36:49;;;;;;;7.93;3.65;;;;;;;26.05;48.49;100749.84;5048409;28;20048;-82
2022/06/30 03:39:15;;;;;;;4.88;3.80;;;;;;;26.21;48.63;100780.94;5066342;28;20045;-83
2022/06/30 03:41:42;;;;;;;8.60;3.58;;;;;;;26.03;48.84;100754.69;5031357;28;20119;-77
2022/06/30 03:44:09;;;;;;;12.55;3.83;;;;;;;26.12;49.19;100772.31;5012441;28;20293;-78
2022/06/30 03:46:35;;;;;;;8.23;3.90;;;;;;;26.00;48.62;100753.28;5011199;28;20409;-80
2022/06/30 03:49:02;;;;;;;7.22;4.07;;;;;;;26.15;49.41;100782.72;5027065;28;20053;-77
2022/06/30 03:51:29;;;;;;;12.75;4.00;;;;;;;25.57;48.81;100688.28;5010881;28;20132;-78
2022/06/30 03:54:01;;;;;;;9.52;3.65;;;;;;;26.05;48.85;100763.44;5043262;28;20052;-79
2022/06/30 03:56:28;;;;;;;8.75;4.72;;;;;;;26.20;48.75;100795.63;5030123;28;20092;-78
2022/06/30 03:58:55;;;;;;;9.75;3.90;;;;;;;26.03;49.07;100772.91;5014060;28;20055;-77
2022/06/30 04:01:22;;;;;;;14.45;4.35;;;;;;;26.16;49.43;100783.56;5046894;28;20064;-79
2022/06/30 04:03:48;;;;;;;7.65;4.32;;;;;;;26.15;49.26;100781.91;5030721;28;20067;-79
2022/06/30 04:06:15;;;;;;;8.90;3.67;;;;;;;25.99;49.23;100756.22;5030880;28;20079;-79
2022/06/30 04:08:42;;;;;;;8.77;4.10;;;;;;;26.11;49.60;100786.97;5031722;28;20080;-78
2022/06/30 04:11:08;;;;;;;13.32;4.03;;;;;;;26.05;49.68;100771.63;5030347;28;20548;-78
2022/06/30 04:13:35;;;;;;;8.57;3.58;;;;;;;26.10;49.28;100784.50;5048852;28;20053;-79
2022/06/30 04:16:02;;;;;;;8.45;3.60;;;;;;;26.10;49.59;100785.34;5030286;28;20037;-80
2022/06/30 04:18:29;;;;;;;13.93;3.50;;;;;;;26.06;49.86;100783.31;5045523;28;20084;-78
2022/06/30 04:20:55;;;;;;;9.32;4.47;;;;;;;25.97;49.66;100780.94;5029798;28;20389;-78
2022/06/30 04:23:22;;;;;;;7.20;3.88;;;;;;;25.93;49.99;100773.50;5029801;28;20122;-80
2022/06/30 04:25:49;;;;;;;11.13;4.30;;;;;;;26.03;49.91;100779.19;5029440;28;20110;-80
2022/06/30 04:28:15;;;;;;;7.13;3.95;;;;;;;25.98;49.24;100765.44;5046740;28;20099;-80
2022/06/30 04:33:27;;;;;;;5.75;4.10;;;;;;;26.16;50.08;100808.88;5046357;28;20045;-78
2022/06/30 04:35:54;;;;;;;14.80;5.15;;;;;;;26.23;49.44;100811.47;5047780;28;20119;-79
2022/06/30 04:38:21;;;;;;;7.95;4.43;;;;;;;26.07;50.20;100796.69;5029121;28;20083;-80
2022/06/30 04:43:33;;;;;;;10.18;4.32;;;;;;;26.03;49.64;100795.50;5007624;28;20046;-79
2022/06/30 04:45:59;;;;;;;5.90;4.07;;;;;;;25.95;49.46;100782.25;5005997;28;20046;-80
2022/06/30 04:48:26;;;;;;;10.93;4.10;;;;;;;26.25;49.34;100816.69;5007033;28;20060;-79
2022/06/30 04:50:53;;;;;;;9.32;3.92;;;;;;;26.24;49.37;100815.88;4989439;28;20390;-79
2022/06/30 04:53:20;;;;;;;10.15;4.10;;;;;;;26.18;49.73;100814.91;5007875;28;20072;-78
2022/06/30 04:55:47;;;;;;;8.65;4.57;;;;;;;25.72;49.77;100745.72;5045408;28;20782;-78
2022/06/30 04:58:14;;;;;;;11.05;4.97;;;;;;;26.20;49.81;100807.34;5029459;28;20056;-81
2022/06/30 05:01:04;;;;;;;7.57;4.45;;;;;;;26.21;50.44;100805.44;5029158;28;20106;-80
2022/06/30 05:03:31;;;;;;;4.90;4.07;;;;;;;26.16;50.83;100814.31;5035172;28;20143;-79
2022/06/30 05:06:03;;;;;;;11.13;4.55;;;;;;;26.19;50.77;100807.56;5023563;28;20134;-79
2022/06/30 05:08:30;;;;;;;8.55;4.60;;;;;;;26.23;50.89;100808.75;5024158;28;20049;-80
2022/06/30 05:10:57;;;;;;;9.60;5.07;;;;;;;26.22;51.01;100801.69;5008170;28;20049;-80
2022/06/30 05:13:30;;;;;;;13.85;6.28;;;;;;;26.37;50.81;100812.09;5024176;28;20194;-81
2022/06/30 05:15:57;;;;;;;14.93;7.20;;;;;;;25.39;50.96;100664.72;5024101;28;20404;-78
2022/06/30 05:18:26;;;;;;;12.77;6.32;;;;;;;26.29;51.06;100820.59;5023351;28;20452;-81
2022/06/30 05:20:54;;;;;;;16.30;7.47;;;;;;;26.20;50.69;100796.47;5010148;28;20092;-82
2022/06/30 05:23:21;;;;;;;17.08;6.57;;;;;;;25.89;51.32;100750.53;5022142;28;20050;-79
2022/06/30 05:28:33;;;;;;;13.27;7.70;;;;;;;26.47;50.80;100834.09;5024395;28;20416;-80
2022/06/30 05:31:00;;;;;;;11.32;5.90;;;;;;;26.39;50.93;100831.75;5007935;28;20060;-80
2022/06/30 05:33:27;;;;;;;9.50;6.50;;;;;;;26.30;51.42;100816.81;5007267;28;20220;-80
2022/06/30 05:35:58;;;;;;;13.63;6.45;;;;;;;26.42;51.21;100833.97;5025527;28;20460;-81
2022/06/30 05:38:24;;;;;;;12.60;5.85;;;;;;;26.31;50.88;100799.41;5023373;28;20519;-80
2022/06/30 05:40:51;;;;;;;18.13;7.15;;;;;;;26.37;50.84;100817.53;5023016;28;20277;-80
2022/06/30 05:43:18;;;;;;;12.60;6.45;;;;;;;26.44;50.02;100797.28;5023692;28;20097;-78
2022/06/30 05:45:46;;;;;;;15.32;6.05;;;;;;;25.97;49.16;100720.25;5012030;28;20053;-80
2022/06/30 05:48:13;;;;;;;12.15;6.32;;;;;;;25.76;49.39;100689.84;5007450;28;20053;-81
2022/06/30 05:50:40;;;;;;;14.30;6.60;;;;;;;26.57;49.44;100809.03;5007000;28;20099;-80
2022/06/30 05:53:07;;;;;;;14.48;5.28;;;;;;;26.81;49.15;100831.63;5014842;28;20076;-80
2022/06/30 05:55:33;;;;;;;8.80;5.20;;;;;;;26.74;48.22;100811.88;5026696;28;20484;-80
2022/06/30 05:58:05;;;;;;;15.38;5.60;;;;;;;26.84;47.09;100828.44;5008873;28;20049;-79
2022/06/30 06:00:32;;;;;;;13.10;5.13;;;;;;;26.89;47.72;100831.25;5025222;28;20061;-79
2022/06/30 06:03:02;;;;;;;13.05;6.47;;;;;;;26.00;46.76;100688.00;5003704;28;20062;-80
2022/06/30 06:05:29;;;;;;;15.38;5.60;;;;;;;26.63;46.87;100806.19;4987347;28;20363;-78
2022/06/30 06:08:10;;;;;;;11.30;5.38;;;;;;;26.82;47.51;100839.56;4988243;28;20508;-78
2022/06/30 06:10:37;;;;;;;9.77;5.70;;;;;;;26.77;47.61;100836.72;4987711;28;20762;-79
2022/06/30 06:13:15;;;;;;;9.27;5.22;;;;;;;26.79;47.67;100831.88;4988688;28;20054;-78
2022/06/30 06:15:41;;;;;;;13.15;5.65;;;;;;;26.43;47.32;100751.25;4987637;28;20049;-81
2022/06/30 06:18:08;;;;;;;13.70;6.03;;;;;;;26.92;47.22;100825.34;4986896;28;20090;-80
2022/06/30 06:20:35;;;;;;;16.50;5.20;;;;;;;27.14;47.26;100857.38;5021877;28;20293;-79
2022/06/30 06:23:04;;;;;;;12.40;6.28;;;;;;;26.95;46.90;100824.03;5023460;28;20057;-79
2022/06/30 06:25:31;;;;;;;13.25;5.45;;;;;;;27.08;47.21;100846.38;5023959;28;20463;-77
2022/06/30 06:30:50;;;;;;;10.70;5.10;;;;;;;26.92;47.60;100821.78;5025044;28;20475;-81
2022/06/30 06:33:22;;;;;;;16.67;5.35;;;;;;;27.14;47.75;100855.53;5006940;28;20107;-81
2022/06/30 06:35:49;;;;;;;14.40;5.43;;;;;;;27.10;47.52;100831.72;5007351;28;20049;-77
2022/06/30 06:38:16;;;;;;;10.32;5.32;;;;;;;27.36;46.57;100846.72;5008842;28;20248;-79
2022/06/30 06:40:43;;;;;;;14.25;4.80;;;;;;;27.32;45.66;100835.47;5031245;28;20566;-78
2022/06/30 06:43:12;;;;;;;12.35;5.15;;;;;;;27.40;45.23;100837.78;5037419;28;20080;-82
2022/06/30 06:45:39;;;;;;;9.90;5.00;;;;;;;27.37;45.05;100835.56;5048906;28;20519;-79
2022/06/30 06:48:05;;;;;;;11.95;4.85;;;;;;;27.55;44.64;100853.66;5029756;28;20656;-77
2022/06/30 06:50:32;;;;;;;11.73;5.68;;;;;;;27.51;44.47;100852.47;5022621;28;20088;-76
2022/06/30 06:52:59;;;;;;;13.98;5.20;;;;;;;27.53;44.73;100860.41;5026657;28;20071;-81
2022/06/30 06:55:26;;;;;;;8.43;4.85;;;;;;;27.44;44.66;100849.88;5029773;28;20060;-78
2022/06/30 06:57:53;;;;;;;13.93;5.30;;;;;;;27.37;44.69;100853.81;5030226;28;20045;-78
2022/06/30 07:00:20;;;;;;;13.27;5.28;;;;;;;26.72;45.18;100754.91;5033972;28;20059;-78
2022/06/30 07:02:46;;;;;;;11.05;4.55;;;;;;;27.49;45.49;100863.63;5028182;28;20114;-76
2022/06/30 07:05:13;;;;;;;16.25;5.25;;;;;;;27.41;45.31;100876.81;5026255;28;20056;-77
2022/06/30 07:07:40;;;;;;;8.50;4.65;;;;;;;27.19;46.08;100846.66;5026291;28;20057;-79
2022/06/30 07:10:08;;;;;;;10.82;5.20;;;;;;;27.58;45.19;100879.59;5026170;28;20046;-78
2022/06/30 07:12:35;;;;;;;12.05;5.30;;;;;;;27.63;45.25;100877.78;5026364;28;20139;-80
2022/06/30 07:15:02;;;;;;;15.93;6.20;;;;;;;27.69;45.29;100881.44;5026315;28;20061;-79
2022/06/30 07:17:39;;;;;;;13.52;5.82;;;;;;;27.60;45.37;100853.75;5027486;28;20140;-78
2022/06/30 07:20:07;;;;;;;13.82;4.55;;;;;;;27.73;45.27;100868.16;5026292;28;20126;-78
2022/06/30 07:22:34;;;;;;;8.18;4.65;;;;;;;27.77;45.56;100881.06;5009899;28;20073;-80
2022/06/30 07:25:04;;;;;;;12.80;5.15;;;;;;;27.86;45.12;100868.69;5022483;28;20057;-79
2022/06/30 07:27:34;;;;;;;13.05;5.15;;;;;;;27.80;45.01;100864.22;5006017;28;20058;-80
2022/06/30 07:30:01;;;;;;;6.30;4.68;;;;;;;27.69;46.05;100848.72;5007175;28;20494;-79
2022/06/30 07:32:28;;;;;;;7.88;5.18;;;;;;;27.82;45.65;100853.06;5005710;28;20115;-78
2022/06/30 07:34:56;;;;;;;15.90;4.93;;;;;;;28.00;45.38;100879.31;5006694;28;20141;-78
2022/06/30 07:37:22;;;;;;;9.23;5.05;;;;;;;27.97;45.87;100868.91;5005993;28;20058;-77
2022/06/30 07:39:49;;;;;;;14.13;5.63;;;;;;;28.11;45.72;100873.81;5002646;28;20149;-78
2022/06/30 07:42:16;;;;;;;12.00;5.30;;;;;;;27.84;46.43;100835.41;4986367;28;20588;-79
2022/06/30 07:44:43;;;;;;;14.07;7.25;;;;;;;28.00;47.35;100865.69;5002992;28;20057;-80
2022/06/30 07:47:11;;;;;;;18.83;6.72;;;;;;;27.93;47.38;100868.56;4987951;28;20090;-78
2022/06/30 07:49:38;;;;;;;12.68;6.25;;;;;;;27.98;47.47;100844.09;4987124;28;20057;-79
2022/06/30 07:52:06;;;;;;;9.43;5.47;;;;;;;28.11;47.28;100862.06;4986946;28;20058;-80
2022/06/30 07:54:39;;;;;;;16.95;5.90;;;;;;;27.88;47.14;100827.53;4987338;28;20405;-81
2022/06/30 07:57:06;;;;;;;11.13;4.85;;;;;;;28.18;47.18;100860.00;4988631;28;20298;-80
2022/06/30 07:59:54;;;;;;;23.48;6.22;;;;;;;28.34;46.89;100853.69;4987487;28;20391;-78
2022/06/30 08:02:20;;;;;;;14.48;6.47;;;;;;;28.12;47.35;100809.94;4980469;28;20066;-79
2022/06/30 08:04:48;;;;;;;23.48;7.95;;;;;;;28.48;47.48;100842.50;4967615;28;20058;-79
2022/06/30 08:07:15;;;;;;;15.07;6.97;;;;;;;28.65;46.88;100848.75;4967540;28;20097;-78
2022/06/30 08:09:42;;;;;;;17.40;7.10;;;;;;;28.58;47.12;100826.25;4967998;28;20109;-81
2022/06/30 08:12:09;;;;;;;21.95;8.20;;;;;;;28.76;46.89;100853.28;4967849;28;20532;-79
2022/06/30 08:14:35;;;;;;;20.73;8.63;;;;;;;28.71;47.37;100846.91;4967774;28;20053;-81
2022/06/30 08:17:06;;;;;;;14.27;7.82;;;;;;;28.65;47.59;100818.69;4967632;28;20059;-82
2022/06/30 08:19:33;;;;;;;;;;;;;;;28.96;47.63;100850.00;4968034;28;20113;-79
2022/06/30 08:22:00;;;;;;;12.98;7.20;;;;;;;28.93;47.19;100830.53;4969763;28;19926;-80
2022/06/30 08:24:27;;;;;;;15.13;7.70;;;;;;;28.85;47.46;100826.34;4967419;28;20078;-80
2022/06/30 08:26:54;;;;;;;17.80;7.93;;;;;;;29.13;47.80;100843.69;4967705;28;20057;-79
2022/06/30 08:29:21;;;;;;;13.50;7.18;;;;;;;29.09;47.52;100821.50;4967463;28;20051;-81
2022/06/30 08:31:48;;;;;;;16.60;7.70;;;;;;;29.16;47.66;100827.59;4969512;28;20054;-79
2022/06/30 08:34:15;;;;;;;16.02;7.28;;;;;;;28.91;47.86;100778.06;4969229;28;20047;-78
2022/06/30 08:36:58;;;;;;;21.23;7.97;;;;;;;29.38;46.90;100826.75;4967982;28;20059;-79
2022/06/30 08:42:12;;;;;;;12.73;7.93;;;;;;;29.54;46.24;100828.59;4969299;28;20053;-81
2022/06/30 08:44:42;;;;;;;15.48;7.32;;;;;;;29.50;47.09;100832.91;4969645;28;20124;-80
2022/06/30 08:47:09;;;;;;;16.67;8.15;;;;;;;29.47;47.07;100836.16;4967577;28;20057;-80
2022/06/30 08:49:35;;;;;;;24.98;8.90;;;;;;;29.31;47.20;100810.56;4968016;28;20130;-80
2022/06/30 08:52:13;;;;;;;14.60;7.90;;;;;;;28.60;47.26;100698.47;4967909;28;20047;-79
2022/06/30 08:54:42;;;;;;;18.73;8.05;;;;;;;29.64;47.33;100838.81;4967202;28;20399;-79
2022/06/30 08:57:09;;;;;;;16.38;7.82;;;;;;;29.60;47.23;100826.72;4967477;28;20047;-81
2022/06/30 08:59:37;;;;;;;19.55;7.28;;;;;;;29.78;47.48;100833.75;4967195;28;20470;-80
2022/06/30 09:02:05;;;;;;;14.70;8.32;;;;;;;29.97;46.52;100847.91;4966574;28;20057;-80
2022/06/30 09:04:32;;;;;;;20.42;8.20;;;;;;;29.94;46.64;100835.56;4967675;28;20406;-81
2022/06/30 09:06:59;;;;;;;18.67;8.00;;;;;;;29.92;46.43;100818.56;4966340;28;20275;-78
2022/06/30 09:09:26;;;;;;;20.55;9.25;;;;;;;29.89;47.21;100838.25;4966382;28;20095;-80
2022/06/30 09:11:56;;;;;;;20.00;9.68;;;;;;;29.15;47.24;100724.84;4967040;28;20101;-81
2022/06/30 09:14:46;;;;;;;23.15;8.73;;;;;;;30.01;47.11;100843.56;4968393;28;20514;-79
2022/06/30 09:17:16;;;;;;;25.67;9.00;;;;;;;30.06;47.16;100834.59;4976005;28;20422;-79
2022/06/30 09:20:10;;;;;;;20.25;8.73;;;;;;;30.13;46.61;100829.72;4982834;28;20050;-79
2022/06/30 09:22:42;;;;;;;18.63;7.88;;;;;;;29.98;46.46;100786.63;4980274;28;20061;-82
2022/06/30 09:25:12;;;;;;;15.20;7.53;;;;;;;30.34;46.50;100823.34;4966874;28;20055;-80
2022/06/30 09:27:40;;;;;;;17.75;7.90;;;;;;;30.58;45.99;100844.84;4968314;28;20098;-80
2022/06/30 09:30:11;;;;;;;16.92;8.52;;;;;;;30.79;44.70;100843.88;4967455;28;20381;-80
2022/06/30 09:33:01;;;;;;;15.43;7.88;;;;;;;29.97;44.88;100700.94;4966826;28;20081;-78
2022/06/30 09:35:31;;;;;;;18.95;8.90;;;;;;;30.88;45.17;100845.06;4966973;28;20145;-82
2022/06/30 09:38:08;;;;;;;23.13;8.75;;;;;;;30.78;45.52;100842.25;4966858;28;20102;-79
2022/06/30 09:41:01;;;;;;;14.27;8.77;;;;;;;30.64;45.29;100838.31;4983734;28;20057;-81
2022/06/30 09:43:36;;;;;;;16.33;7.53;;;;;;;30.60;45.67;100807.88;4985874;28;20399;-79
2022/06/30 09:46:06;;;;;;;19.45;7.82;;;;;;;31.06;44.43;100842.97;4985709;28;20053;-81
2022/06/30 09:48:38;;;;;;;14.95;7.07;;;;;;;31.01;44.06;100841.00;4985907;28;20073;-81
2022/06/30 09:51:05;;;;;;;16.05;8.55;;;;;;;30.75;44.03;100777.00;4986528;28;20085;-80
2022/06/30 09:53:32;;;;;;;21.20;7.38;;;;;;;31.14;43.35;100820.50;4985512;28;20418;-80
2022/06/30 09:56:14;;;;;;;13.02;7.32;;;;;;;31.51;41.67;100838.78;4986339;28;20054;-79
2022/06/30 09:58:42;;;;;;;18.20;7.82;;;;;;;31.55;41.99;100839.84;4987059;28;20054;-80
2022/06/30 10:01:10;;;;;;;22.70;7.65;;;;;;;31.29;41.82;100748.44;4985466;28;20054;-78
2022/06/30 10:03:45;;;;;;;15.30;7.65;;;;;;;31.90;41.61;100841.84;5000332;28;20145;-79
2022/06/30 10:06:15;;;;;;;15.98;7.50;;;;;;;31.57;41.60;100763.59;5003951;28;20046;-78
2022/06/30 10:08:43;;;;;;;22.00;8.05;;;;;;;31.80;41.48;100775.13;5005585;28;20061;-80
2022/06/30 10:11:11;;;;;;;21.83;7.55;;;;;;;32.24;41.15;100816.63;5005774;28;20057;-80
2022/06/30 10:13:41;;;;;;;13.00;7.55;;;;;;;32.29;40.96;100832.28;4997621;28;20062;-81
2022/06/30 10:16:09;;;;;;;18.45;8.80;;;;;;;32.27;41.73;100802.31;4967721;28;20101;-81
2022/06/30 10:18:38;;;;;;;13.23;7.43;;;;;;;32.47;42.04;100811.63;4970166;28;20664;-80
2022/06/30 10:21:05;;;;;;;18.75;7.78;;;;;;;32.05;41.18;100738.66;4969690;28;20098;-80
2022/06/30 10:23:32;;;;;;;22.25;7.35;;;;;;;32.79;40.73;100825.03;4970093;28;20113;-79
2022/06/30 10:25:59;;;;;;;10.32;6.82;;;;;;;32.85;40.09;100796.44;4969823;28;20066;-81
2022/06/30 10:28:30;;;;;;;17.10;7.43;;;;;;;32.99;39.91;100811.22;4971401;28;20054;-81
2022/06/30 10:31:14;;;;;;;29.75;8.15;;;;;;;32.97;40.04;100815.38;4969762;28;20494;-80
2022/06/30 10:34:07;;;;;;;17.20;7.10;;;;;;;33.35;39.32;100821.25;4969721;28;20438;-81
2022/06/30 10:36:44;;;;;;;12.88;7.43;;;;;;;33.44;39.30;100829.75;4969827;28;20057;-81
2022/06/30 10:39:34;;;;;;;15.48;7.25;;;;;;;33.11;38.16;100722.09;4971703;28;20050;-81
2022/06/30 10:42:01;;;;;;;18.05;6.78;;;;;;;33.49;37.27;100749.91;4969521;28;20486;-81
2022/06/30 10:44:29;;;;;;;22.70;7.28;;;;;;;34.09;37.77;100810.34;4971087;28;20464;-81
2022/06/30 10:47:05;;;;;;;23.48;7.68;;;;;;;34.29;37.26;100812.06;4970666;28;20055;-81
2022/06/30 10:49:50;;;;;;;11.50;6.43;;;;;;;34.25;37.52;100798.03;4971113;28;20293;-81
2022/06/30 10:52:23;;;;;;;11.35;6.60;;;;;;;34.30;36.87;100791.66;4971663;28;20055;-81
2022/06/30 10:55:00;;;;;;;14.90;6.55;;;;;;;34.48;36.95;100793.69;5008436;28;20108;-81
2022/06/30 10:57:27;;;;;;;12.88;6.95;;;;;;;34.61;35.97;100754.41;5003114;28;20050;-82
2022/06/30 10:59:53;;;;;;;10.60;6.82;;;;;;;34.42;35.78;100692.88;5004031;28;20050;-81
2022/06/30 11:02:26;;;;;;;11.63;6.65;;;;;;;34.86;35.35;100771.78;5023495;28;20140;-81
2022/06/30 11:05:23;;;;;;;11.77;6.65;;;;;;;34.91;34.68;100785.50;5031165;28;20060;-83
2022/06/30 11:07:50;;;;;;;22.80;6.25;;;;;;;34.21;34.92;100643.53;5049105;28;20053;-83
2022/06/30 11:10:18;;;;;;;11.55;6.15;;;;;;;34.50;34.53;100675.72;5030819;28;20044;-80
2022/06/30 11:12:47;;;;;;;10.85;5.70;;;;;;;35.47;32.70;100776.47;5049228;28;20465;-81
2022/06/30 11:15:14;;;;;;;11.02;5.28;;;;;;;35.59;32.47;100789.00;5032582;28;20107;-81
2022/06/30 11:17:41;;;;;;;16.08;5.68;;;;;;;35.72;32.45;100772.50;5050664;28;20053;-81
2022/06/30 11:20:15;;;;;;;13.05;5.20;;;;;;;35.35;31.90;100690.53;5017152;28;20139;-79
2022/06/30 11:22:43;;;;;;;7.50;4.75;;;;;;;35.89;32.15;100766.41;5050369;28;20140;-81
2022/06/30 11:28:02;;;;;;;13.95;5.85;;;;;;;35.88;31.75;100750.97;5050880;28;20408;-80
2022/06/30 11:30:31;;;;;;;12.10;5.45;;;;;;;36.08;32.18;100773.84;5031533;28;20052;-82
2022/06/30 11:32:59;;;;;;;8.55;5.25;;;;;;;35.97;31.29;100737.28;5030893;28;20566;-82
2022/06/30 11:35:28;;;;;;;17.05;6.18;;;;;;;36.03;31.59;100749.88;5031158;28;20060;-79
2022/06/30 11:37:55;;;;;;;8.43;4.80;;;;;;;36.44;29.12;100764.91;5031105;28;20055;-80
2022/06/30 11:40:22;;;;;;;7.15;4.68;;;;;;;36.28;29.56;100720.16;5015510;28;20076;-80
2022/06/30 11:42:51;;;;;;;9.88;4.47;;;;;;;36.57;29.78;100759.41;5011373;28;20123;-81
2022/06/30 11:45:29;;;;;;;4.85;4.32;;;;;;;36.29;28.34;100659.06;5011026;28;20057;-80
2022/06/30 11:48:00;;;;;;;11.38;4.57;;;;;;;37.04;28.01;100750.94;5011204;28;20212;-81